world map with YBHI marked

YBHI - Airport

This information may not be accurate or current and is not valid for navigation or flight planning. No warranty of fitness for any purpose is made or implied.

flag of New South Walesflag of Australia

Donate via PayPal

Additional information is available on the NEW Great Circle Mapper

Location
City:  Broken Hill, New South Wales, Australia
ICAO / IATA:YBHI / BHQ

Details
Type:Airport (Aerodrome, Airfield)
Use:Public/Civil
Latitude:32°00'05"S (-32.001388)
Longitude:141°28'18"E (141.471667)
Datum:WGS 1984
Elevation:958 ft (292 m)
Runways:2
Longest:8251 × 98 ft (2515 × 30 m)

Time
Timezone:UTC+9:30 (DST+10:30)
Local Time:

Weather
METAR:YBHI  012100Z AUTO 18005KT 9999 // NCD 09/02 Q1026

Related Locations
Nearby:
Farthest:FLW: 11775 mi / 18949 km
Flores Island [Santa Cruz], Azores, PT

Find:

   beyond  
but within

Other Information
Maps:
Links:
Sources:

  


 


Great Circle Mapper   Great Circle Mapper
Great Circle Mapper FAQ   Great Circle Mapper FAQ
  Karl's Home Page
KLSē   KLSē Home
   GC on Facebook
Airlines of the World   Airlines of the World
Donate via PayPal


Copyright © 2004-2014, Karl L. Swartz. All rights reserved.
All trademarks mentioned herein belong to their respective owners.

Please see credits for attribution and copyright information.

Karl Swartz <karl@kls2.com>
  Powered by FreeBSD
Valid HTML 4.01!
Labeled with ICRA
hCard Microformat
Geo Microformat